sensor_id;sensor_type;location;lat;lon;timestamp;temperature;humidity
6964;DHT22;3522;50.856;7.278;2023-05-10T00:00:26;12.60;99.90
6964;DHT22;3522;50.856;7.278;2023-05-10T00:02:52;12.50;99.90
6964;DHT22;3522;50.856;7.278;2023-05-10T00:05:19;12.50;99.90
6964;DHT22;3522;50.856;7.278;2023-05-10T00:07:46;12.60;99.90
6964;DHT22;3522;50.856;7.278;2023-05-10T00:10:12;12.50;99.90
6964;DHT22;3522;50.856;7.278;2023-05-10T00:12:39;12.50;99.90
6964;DHT22;3522;50.856;7.278;2023-05-10T00:15:06;12.50;99.90
6964;DHT22;3522;50.856;7.278;2023-05-10T00:17:34;12.50;99.90
6964;DHT22;3522;50.856;7.278;2023-05-10T00:20:01;12.50;99.90
6964;DHT22;3522;50.856;7.278;2023-05-10T00:22:30;12.50;99.90
6964;DHT22;3522;50.856;7.278;2023-05-10T00:24:56;12.50;99.90
6964;DHT22;3522;50.856;7.278;2023-05-10T00:27:23;12.50;99.90
6964;DHT22;3522;50.856;7.278;2023-05-10T00:29:49;12.60;99.90
6964;DHT22;3522;50.856;7.278;2023-05-10T00:32:16;12.50;99.90
6964;DHT22;3522;50.856;7.278;2023-05-10T00:34:44;12.50;99.90
6964;DHT22;3522;50.856;7.278;2023-05-10T00:37:10;12.60;99.90
6964;DHT22;3522;50.856;7.278;2023-05-10T00:39:37;12.50;99.90
6964;DHT22;3522;50.856;7.278;2023-05-10T00:42:04;12.50;99.90
6964;DHT22;3522;50.856;7.278;2023-05-10T00:44:30;12.50;99.90
6964;DHT22;3522;50.856;7.278;2023-05-10T00:46:57;12.50;99.90
6964;DHT22;3522;50.856;7.278;2023-05-10T00:49:24;12.50;99.90
6964;DHT22;3522;50.856;7.278;2023-05-10T00:51:52;12.60;99.90
6964;DHT22;3522;50.856;7.278;2023-05-10T00:54:19;12.60;99.90
6964;DHT22;3522;50.856;7.278;2023-05-10T00:56:45;12.60;99.90
6964;DHT22;3522;50.856;7.278;2023-05-10T00:59:14;12.60;99.90
6964;DHT22;3522;50.856;7.278;2023-05-10T01:01:41;12.60;99.90
6964;DHT22;3522;50.856;7.278;2023-05-10T01:04:08;12.60;99.90
6964;DHT22;3522;50.856;7.278;2023-05-10T01:06:35;12.60;99.90
6964;DHT22;3522;50.856;7.278;2023-05-10T01:09:03;12.60;99.90
6964;DHT22;3522;50.856;7.278;2023-05-10T01:11:29;12.60;99.90
6964;DHT22;3522;50.856;7.278;2023-05-10T01:13:56;12.60;99.90
6964;DHT22;3522;50.856;7.278;2023-05-10T01:16:23;12.60;99.90
6964;DHT22;3522;50.856;7.278;2023-05-10T01:18:51;12.60;99.90
6964;DHT22;3522;50.856;7.278;2023-05-10T01:21:19;12.50;99.90
6964;DHT22;3522;50.856;7.278;2023-05-10T01:26:44;12.50;99.90
6964;DHT22;3522;50.856;7.278;2023-05-10T01:32:09;12.50;99.90
6964;DHT22;3522;50.856;7.278;2023-05-10T01:34:42;12.50;99.90
6964;DHT22;3522;50.856;7.278;2023-05-10T01:37:13;12.50;99.90
6964;DHT22;3522;50.856;7.278;2023-05-10T01:39:44;12.50;99.90
6964;DHT22;3522;50.856;7.278;2023-05-10T01:42:14;12.50;99.90
6964;DHT22;3522;50.856;7.278;2023-05-10T01:44:42;12.50;99.90
6964;DHT22;3522;50.856;7.278;2023-05-10T01:47:14;12.50;99.90
6964;DHT22;3522;50.856;7.278;2023-05-10T01:49:44;12.50;99.90
6964;DHT22;3522;50.856;7.278;2023-05-10T01:52:26;12.50;99.90
6964;DHT22;3522;50.856;7.278;2023-05-10T01:54:53;12.50;99.90
6964;DHT22;3522;50.856;7.278;2023-05-10T01:57:21;12.50;99.90
6964;DHT22;3522;50.856;7.278;2023-05-10T01:59:50;12.50;99.90
6964;DHT22;3522;50.856;7.278;2023-05-10T02:02:20;12.50;99.90
6964;DHT22;3522;50.856;7.278;2023-05-10T02:04:47;12.60;99.90
6964;DHT22;3522;50.856;7.278;2023-05-10T02:07:14;12.50;99.90
6964;DHT22;3522;50.856;7.278;2023-05-10T02:09:40;12.50;99.90
6964;DHT22;3522;50.856;7.278;2023-05-10T02:12:12;12.50;99.90
6964;DHT22;3522;50.856;7.278;2023-05-10T02:14:39;12.50;99.90
6964;DHT22;3522;50.856;7.278;2023-05-10T02:17:07;12.50;99.90
6964;DHT22;3522;50.856;7.278;2023-05-10T02:19:35;12.50;99.90
6964;DHT22;3522;50.856;7.278;2023-05-10T02:22:03;12.40;99.90
6964;DHT22;3522;50.856;7.278;2023-05-10T02:24:29;12.50;99.90
6964;DHT22;3522;50.856;7.278;2023-05-10T02:26:56;12.50;99.90
6964;DHT22;3522;50.856;7.278;2023-05-10T02:29:23;12.40;99.90
6964;DHT22;3522;50.856;7.278;2023-05-10T02:31:51;12.40;99.90
6964;DHT22;3522;50.856;7.278;2023-05-10T02:34:17;12.50;99.90
6964;DHT22;3522;50.856;7.278;2023-05-10T02:36:46;12.40;99.90
6964;DHT22;3522;50.856;7.278;2023-05-10T02:39:13;12.40;99.90
6964;DHT22;3522;50.856;7.278;2023-05-10T02:41:40;12.40;99.90
6964;DHT22;3522;50.856;7.278;2023-05-10T02:44:08;12.40;99.90
6964;DHT22;3522;50.856;7.278;2023-05-10T02:46:35;12.40;99.90
6964;DHT22;3522;50.856;7.278;2023-05-10T02:49:02;12.40;99.90
6964;DHT22;3522;50.856;7.278;2023-05-10T02:51:30;12.30;99.90
6964;DHT22;3522;50.856;7.278;2023-05-10T02:54:01;12.40;99.90
6964;DHT22;3522;50.856;7.278;2023-05-10T02:56:31;12.40;99.90
6964;DHT22;3522;50.856;7.278;2023-05-10T02:58:59;12.40;99.90
6964;DHT22;3522;50.856;7.278;2023-05-10T03:01:25;12.40;99.90
6964;DHT22;3522;50.856;7.278;2023-05-10T03:03:52;12.40;99.90
6964;DHT22;3522;50.856;7.278;2023-05-10T03:06:18;12.30;99.90
6964;DHT22;3522;50.856;7.278;2023-05-10T03:08:45;12.30;99.90
6964;DHT22;3522;50.856;7.278;2023-05-10T03:11:16;12.30;99.90
6964;DHT22;3522;50.856;7.278;2023-05-10T03:13:56;12.30;99.90
6964;DHT22;3522;50.856;7.278;2023-05-10T03:16:27;12.40;99.90
6964;DHT22;3522;50.856;7.278;2023-05-10T03:18:58;12.30;99.90
6964;DHT22;3522;50.856;7.278;2023-05-10T03:21:28;12.30;99.90
6964;DHT22;3522;50.856;7.278;2023-05-10T03:23:58;12.40;99.90
6964;DHT22;3522;50.856;7.278;2023-05-10T03:26:26;12.40;99.90
6964;DHT22;3522;50.856;7.278;2023-05-10T03:28:53;12.50;99.90
6964;DHT22;3522;50.856;7.278;2023-05-10T03:31:20;12.40;99.90
6964;DHT22;3522;50.856;7.278;2023-05-10T03:33:47;12.40;99.90
6964;DHT22;3522;50.856;7.278;2023-05-10T03:36:14;12.40;99.90
6964;DHT22;3522;50.856;7.278;2023-05-10T03:38:41;12.40;99.90
6964;DHT22;3522;50.856;7.278;2023-05-10T03:41:07;12.40;99.90
6964;DHT22;3522;50.856;7.278;2023-05-10T03:43:35;12.40;99.90
6964;DHT22;3522;50.856;7.278;2023-05-10T03:46:02;12.30;99.90
6964;DHT22;3522;50.856;7.278;2023-05-10T03:48:28;12.30;99.90
6964;DHT22;3522;50.856;7.278;2023-05-10T03:50:55;12.30;99.90
6964;DHT22;3522;50.856;7.278;2023-05-10T03:53:22;12.30;99.90
6964;DHT22;3522;50.856;7.278;2023-05-10T03:55:48;12.30;99.90
6964;DHT22;3522;50.856;7.278;2023-05-10T03:58:15;12.20;99.90
6964;DHT22;3522;50.856;7.278;2023-05-10T04:00:43;12.30;99.90
6964;DHT22;3522;50.856;7.278;2023-05-10T04:03:10;12.20;99.90
6964;DHT22;3522;50.856;7.278;2023-05-10T04:05:37;12.20;99.90
6964;DHT22;3522;50.856;7.278;2023-05-10T04:08:04;12.20;99.90
6964;DHT22;3522;50.856;7.278;2023-05-10T04:10:30;12.30;99.90
6964;DHT22;3522;50.856;7.278;2023-05-10T04:12:57;12.20;99.90
6964;DHT22;3522;50.856;7.278;2023-05-10T04:15:24;12.30;99.90
6964;DHT22;3522;50.856;7.278;2023-05-10T04:17:51;12.30;99.90
6964;DHT22;3522;50.856;7.278;2023-05-10T04:20:18;12.30;99.90
6964;DHT22;3522;50.856;7.278;2023-05-10T04:22:45;12.30;99.90
6964;DHT22;3522;50.856;7.278;2023-05-10T04:25:12;12.30;99.90
6964;DHT22;3522;50.856;7.278;2023-05-10T04:27:38;12.30;99.90
6964;DHT22;3522;50.856;7.278;2023-05-10T04:30:05;12.30;99.90
6964;DHT22;3522;50.856;7.278;2023-05-10T04:32:32;12.30;99.90
6964;DHT22;3522;50.856;7.278;2023-05-10T04:35:00;12.30;99.90
6964;DHT22;3522;50.856;7.278;2023-05-10T04:37:28;12.30;99.90
6964;DHT22;3522;50.856;7.278;2023-05-10T04:39:55;12.30;99.90
6964;DHT22;3522;50.856;7.278;2023-05-10T04:42:21;12.30;99.90
6964;DHT22;3522;50.856;7.278;2023-05-10T04:44:48;12.40;99.90
6964;DHT22;3522;50.856;7.278;2023-05-10T04:47:14;12.40;99.90
6964;DHT22;3522;50.856;7.278;2023-05-10T04:49:41;12.40;99.90
6964;DHT22;3522;50.856;7.278;2023-05-10T04:52:09;12.40;99.90
6964;DHT22;3522;50.856;7.278;2023-05-10T04:54:36;12.40;99.90
6964;DHT22;3522;50.856;7.278;2023-05-10T04:57:03;12.50;99.90
6964;DHT22;3522;50.856;7.278;2023-05-10T04:59:29;12.50;99.90
6964;DHT22;3522;50.856;7.278;2023-05-10T05:01:56;12.50;99.90
6964;DHT22;3522;50.856;7.278;2023-05-10T05:04:22;12.50;99.90
6964;DHT22;3522;50.856;7.278;2023-05-10T05:06:49;12.50;99.90
6964;DHT22;3522;50.856;7.278;2023-05-10T05:09:17;12.50;99.90
6964;DHT22;3522;50.856;7.278;2023-05-10T05:11:44;12.40;99.90
6964;DHT22;3522;50.856;7.278;2023-05-10T05:14:10;12.40;99.90
6964;DHT22;3522;50.856;7.278;2023-05-10T05:16:37;12.40;99.90
6964;DHT22;3522;50.856;7.278;2023-05-10T05:19:03;12.40;99.90
6964;DHT22;3522;50.856;7.278;2023-05-10T05:21:30;12.50;99.90
6964;DHT22;3522;50.856;7.278;2023-05-10T05:23:57;12.50;99.90
6964;DHT22;3522;50.856;7.278;2023-05-10T05:26:25;12.50;99.90
6964;DHT22;3522;50.856;7.278;2023-05-10T05:28:52;12.50;99.90
6964;DHT22;3522;50.856;7.278;2023-05-10T05:31:19;12.50;99.90
6964;DHT22;3522;50.856;7.278;2023-05-10T05:33:46;12.50;99.90
6964;DHT22;3522;50.856;7.278;2023-05-10T05:36:13;12.50;99.90
6964;DHT22;3522;50.856;7.278;2023-05-10T05:38:39;12.50;99.90
6964;DHT22;3522;50.856;7.278;2023-05-10T05:41:06;12.60;99.90
6964;DHT22;3522;50.856;7.278;2023-05-10T05:43:34;12.60;99.90
6964;DHT22;3522;50.856;7.278;2023-05-10T05:46:00;12.60;99.90
6964;DHT22;3522;50.856;7.278;2023-05-10T05:48:27;12.60;99.90
6964;DHT22;3522;50.856;7.278;2023-05-10T05:50:54;12.60;99.90
6964;DHT22;3522;50.856;7.278;2023-05-10T05:53:21;12.80;99.90
6964;DHT22;3522;50.856;7.278;2023-05-10T05:55:50;12.70;99.90
6964;DHT22;3522;50.856;7.278;2023-05-10T05:58:17;12.70;99.90
6964;DHT22;3522;50.856;7.278;2023-05-10T06:00:45;12.60;99.90
6964;DHT22;3522;50.856;7.278;2023-05-10T06:03:12;12.70;99.90
6964;DHT22;3522;50.856;7.278;2023-05-10T06:05:38;12.70;99.90
6964;DHT22;3522;50.856;7.278;2023-05-10T06:08:05;12.60;99.90
6964;DHT22;3522;50.856;7.278;2023-05-10T06:10:31;12.60;99.90
6964;DHT22;3522;50.856;7.278;2023-05-10T06:12:59;12.60;99.90
6964;DHT22;3522;50.856;7.278;2023-05-10T06:15:26;12.60;99.90
6964;DHT22;3522;50.856;7.278;2023-05-10T06:17:54;12.60;99.90
6964;DHT22;3522;50.856;7.278;2023-05-10T06:20:21;12.70;99.90
6964;DHT22;3522;50.856;7.278;2023-05-10T06:22:47;12.80;99.90
6964;DHT22;3522;50.856;7.278;2023-05-10T06:25:14;12.90;99.90
6964;DHT22;3522;50.856;7.278;2023-05-10T06:27:43;12.80;99.90
6964;DHT22;3522;50.856;7.278;2023-05-10T06:30:10;12.90;99.90
6964;DHT22;3522;50.856;7.278;2023-05-10T06:32:38;12.90;99.90
6964;DHT22;3522;50.856;7.278;2023-05-10T06:35:06;12.90;99.90
6964;DHT22;3522;50.856;7.278;2023-05-10T06:37:33;13.00;99.90
6964;DHT22;3522;50.856;7.278;2023-05-10T06:40:00;13.00;99.90
6964;DHT22;3522;50.856;7.278;2023-05-10T06:42:27;13.00;99.90
6964;DHT22;3522;50.856;7.278;2023-05-10T06:44:53;13.10;99.90
6964;DHT22;3522;50.856;7.278;2023-05-10T06:47:20;13.10;99.90
6964;DHT22;3522;50.856;7.278;2023-05-10T06:49:47;13.10;99.90
6964;DHT22;3522;50.856;7.278;2023-05-10T06:52:15;13.10;99.90
6964;DHT22;3522;50.856;7.278;2023-05-10T06:54:41;13.20;99.90
6964;DHT22;3522;50.856;7.278;2023-05-10T06:57:08;13.20;99.90
6964;DHT22;3522;50.856;7.278;2023-05-10T06:59:34;13.30;99.90
6964;DHT22;3522;50.856;7.278;2023-05-10T07:02:01;13.20;99.90
6964;DHT22;3522;50.856;7.278;2023-05-10T07:04:28;13.30;99.90
6964;DHT22;3522;50.856;7.278;2023-05-10T07:06:55;13.20;99.90
6964;DHT22;3522;50.856;7.278;2023-05-10T07:09:23;13.30;99.90
6964;DHT22;3522;50.856;7.278;2023-05-10T07:11:50;13.30;99.90
6964;DHT22;3522;50.856;7.278;2023-05-10T07:14:16;13.20;99.90
6964;DHT22;3522;50.856;7.278;2023-05-10T07:16:43;13.20;99.90
6964;DHT22;3522;50.856;7.278;2023-05-10T07:19:10;13.20;99.90
6964;DHT22;3522;50.856;7.278;2023-05-10T07:21:36;13.10;99.90
6964;DHT22;3522;50.856;7.278;2023-05-10T07:24:05;13.20;99.90
6964;DHT22;3522;50.856;7.278;2023-05-10T07:26:33;13.20;99.90
6964;DHT22;3522;50.856;7.278;2023-05-10T07:29:00;13.20;99.90
6964;DHT22;3522;50.856;7.278;2023-05-10T07:31:26;13.20;99.90
6964;DHT22;3522;50.856;7.278;2023-05-10T07:33:53;13.30;99.90
6964;DHT22;3522;50.856;7.278;2023-05-10T07:36:19;13.30;99.90
6964;DHT22;3522;50.856;7.278;2023-05-10T07:38:46;13.30;99.90
6964;DHT22;3522;50.856;7.278;2023-05-10T07:41:12;13.30;99.90
6964;DHT22;3522;50.856;7.278;2023-05-10T07:43:40;13.30;99.90
6964;DHT22;3522;50.856;7.278;2023-05-10T07:46:07;13.40;99.90
6964;DHT22;3522;50.856;7.278;2023-05-10T07:48:36;13.40;99.90
6964;DHT22;3522;50.856;7.278;2023-05-10T07:51:02;13.50;99.90
6964;DHT22;3522;50.856;7.278;2023-05-10T07:53:29;13.40;99.90
6964;DHT22;3522;50.856;7.278;2023-05-10T07:55:57;13.40;99.90
6964;DHT22;3522;50.856;7.278;2023-05-10T07:58:24;13.50;99.90
6964;DHT22;3522;50.856;7.278;2023-05-10T08:00:52;13.50;99.90
6964;DHT22;3522;50.856;7.278;2023-05-10T08:03:19;13.40;99.90
6964;DHT22;3522;50.856;7.278;2023-05-10T08:05:45;13.40;99.90
6964;DHT22;3522;50.856;7.278;2023-05-10T08:08:12;13.40;99.90
6964;DHT22;3522;50.856;7.278;2023-05-10T08:10:38;13.30;99.90
6964;DHT22;3522;50.856;7.278;2023-05-10T08:13:05;13.30;99.90
6964;DHT22;3522;50.856;7.278;2023-05-10T08:15:31;13.30;99.90
6964;DHT22;3522;50.856;7.278;2023-05-10T08:17:59;13.20;99.90
6964;DHT22;3522;50.856;7.278;2023-05-10T08:20:26;13.20;99.90
6964;DHT22;3522;50.856;7.278;2023-05-10T08:22:52;13.20;99.90
6964;DHT22;3522;50.856;7.278;2023-05-10T08:25:19;13.30;99.90
6964;DHT22;3522;50.856;7.278;2023-05-10T08:27:46;13.20;99.90
6964;DHT22;3522;50.856;7.278;2023-05-10T08:30:12;13.20;99.90
6964;DHT22;3522;50.856;7.278;2023-05-10T08:32:39;13.20;99.90
6964;DHT22;3522;50.856;7.278;2023-05-10T08:35:07;13.30;99.90
6964;DHT22;3522;50.856;7.278;2023-05-10T08:37:33;13.30;99.90
6964;DHT22;3522;50.856;7.278;2023-05-10T08:40:00;13.40;99.90
6964;DHT22;3522;50.856;7.278;2023-05-10T08:42:28;13.40;99.90
6964;DHT22;3522;50.856;7.278;2023-05-10T08:44:56;13.40;99.90
6964;DHT22;3522;50.856;7.278;2023-05-10T08:47:23;13.40;99.90
6964;DHT22;3522;50.856;7.278;2023-05-10T08:49:50;13.50;99.90
6964;DHT22;3522;50.856;7.278;2023-05-10T08:52:18;13.50;99.90
6964;DHT22;3522;50.856;7.278;2023-05-10T08:54:45;13.60;99.90
6964;DHT22;3522;50.856;7.278;2023-05-10T08:57:11;13.60;99.90
6964;DHT22;3522;50.856;7.278;2023-05-10T08:59:38;13.60;99.90
6964;DHT22;3522;50.856;7.278;2023-05-10T09:02:05;13.50;99.90
6964;DHT22;3522;50.856;7.278;2023-05-10T09:04:32;13.50;99.90
6964;DHT22;3522;50.856;7.278;2023-05-10T09:06:59;13.60;99.90
6964;DHT22;3522;50.856;7.278;2023-05-10T09:09:27;13.60;99.90
6964;DHT22;3522;50.856;7.278;2023-05-10T09:11:53;13.60;99.90
6964;DHT22;3522;50.856;7.278;2023-05-10T09:14:20;13.60;99.90
6964;DHT22;3522;50.856;7.278;2023-05-10T09:16:47;13.70;99.90
6964;DHT22;3522;50.856;7.278;2023-05-10T09:19:14;14.00;99.90
6964;DHT22;3522;50.856;7.278;2023-05-10T09:21:41;14.10;99.90
6964;DHT22;3522;50.856;7.278;2023-05-10T09:24:07;14.40;99.90
6964;DHT22;3522;50.856;7.278;2023-05-10T09:26:39;15.00;99.90
6964;DHT22;3522;50.856;7.278;2023-05-10T09:29:11;16.10;99.90
6964;DHT22;3522;50.856;7.278;2023-05-10T09:31:48;16.70;99.90
6964;DHT22;3522;50.856;7.278;2023-05-10T09:34:17;16.90;99.90
6964;DHT22;3522;50.856;7.278;2023-05-10T09:36:50;16.80;99.90
6964;DHT22;3522;50.856;7.278;2023-05-10T09:39:17;16.60;99.90
6964;DHT22;3522;50.856;7.278;2023-05-10T09:41:45;16.10;99.90
6964;DHT22;3522;50.856;7.278;2023-05-10T09:44:12;15.50;99.90
6964;DHT22;3522;50.856;7.278;2023-05-10T09:46:43;15.10;99.90
6964;DHT22;3522;50.856;7.278;2023-05-10T09:49:09;14.90;99.90
6964;DHT22;3522;50.856;7.278;2023-05-10T09:51:40;14.60;99.90
6964;DHT22;3522;50.856;7.278;2023-05-10T09:54:10;14.40;99.90
6964;DHT22;3522;50.856;7.278;2023-05-10T09:56:37;14.30;99.90
6964;DHT22;3522;50.856;7.278;2023-05-10T09:59:06;14.10;99.90
6964;DHT22;3522;50.856;7.278;2023-05-10T10:01:33;14.20;99.90
6964;DHT22;3522;50.856;7.278;2023-05-10T10:04:02;14.10;99.90
6964;DHT22;3522;50.856;7.278;2023-05-10T10:06:28;14.10;99.90
6964;DHT22;3522;50.856;7.278;2023-05-10T10:08:55;14.00;99.90
6964;DHT22;3522;50.856;7.278;2023-05-10T10:11:22;14.10;99.90
6964;DHT22;3522;50.856;7.278;2023-05-10T10:13:49;14.10;99.90
6964;DHT22;3522;50.856;7.278;2023-05-10T10:16:17;14.20;99.90
6964;DHT22;3522;50.856;7.278;2023-05-10T10:18:44;14.40;99.90
6964;DHT22;3522;50.856;7.278;2023-05-10T10:21:12;14.50;99.90
6964;DHT22;3522;50.856;7.278;2023-05-10T10:23:39;14.60;99.90
6964;DHT22;3522;50.856;7.278;2023-05-10T10:26:06;14.40;99.90
6964;DHT22;3522;50.856;7.278;2023-05-10T10:28:35;14.30;99.90
6964;DHT22;3522;50.856;7.278;2023-05-10T10:31:11;14.20;99.90
6964;DHT22;3522;50.856;7.278;2023-05-10T10:33:44;14.20;99.90
6964;DHT22;3522;50.856;7.278;2023-05-10T10:36:17;14.40;99.90
6964;DHT22;3522;50.856;7.278;2023-05-10T10:38:56;14.80;99.90
6964;DHT22;3522;50.856;7.278;2023-05-10T10:41:32;15.20;99.90
6964;DHT22;3522;50.856;7.278;2023-05-10T10:49:32;15.70;99.90
6964;DHT22;3522;50.856;7.278;2023-05-10T10:52:15;15.30;99.90
6964;DHT22;3522;50.856;7.278;2023-05-10T10:54:49;15.00;99.90
6964;DHT22;3522;50.856;7.278;2023-05-10T10:57:17;14.70;99.90
6964;DHT22;3522;50.856;7.278;2023-05-10T10:59:44;14.60;99.90
6964;DHT22;3522;50.856;7.278;2023-05-10T11:02:17;14.60;99.90
6964;DHT22;3522;50.856;7.278;2023-05-10T11:04:59;14.50;99.90
6964;DHT22;3522;50.856;7.278;2023-05-10T11:07:26;14.40;99.90
6964;DHT22;3522;50.856;7.278;2023-05-10T11:09:52;14.40;99.90
6964;DHT22;3522;50.856;7.278;2023-05-10T11:12:20;14.20;99.90
6964;DHT22;3522;50.856;7.278;2023-05-10T11:14:49;14.20;99.90
6964;DHT22;3522;50.856;7.278;2023-05-10T11:17:22;14.30;99.90
6964;DHT22;3522;50.856;7.278;2023-05-10T11:20:09;14.50;99.90
6964;DHT22;3522;50.856;7.278;2023-05-10T11:22:49;14.80;99.90
6964;DHT22;3522;50.856;7.278;2023-05-10T11:25:15;15.00;99.90
6964;DHT22;3522;50.856;7.278;2023-05-10T11:27:42;15.20;99.90
6964;DHT22;3522;50.856;7.278;2023-05-10T11:30:09;15.20;99.90
6964;DHT22;3522;50.856;7.278;2023-05-10T11:32:36;15.30;99.90
6964;DHT22;3522;50.856;7.278;2023-05-10T11:35:06;15.30;99.90
6964;DHT22;3522;50.856;7.278;2023-05-10T11:37:34;15.30;99.90
6964;DHT22;3522;50.856;7.278;2023-05-10T11:40:01;15.10;99.90
6964;DHT22;3522;50.856;7.278;2023-05-10T11:42:28;15.00;99.90
6964;DHT22;3522;50.856;7.278;2023-05-10T11:44:55;15.00;99.90
6964;DHT22;3522;50.856;7.278;2023-05-10T11:47:22;15.00;99.90
6964;DHT22;3522;50.856;7.278;2023-05-10T11:49:48;15.10;99.90
6964;DHT22;3522;50.856;7.278;2023-05-10T11:52:15;15.40;99.90
6964;DHT22;3522;50.856;7.278;2023-05-10T11:54:46;15.60;99.90
6964;DHT22;3522;50.856;7.278;2023-05-10T11:57:17;15.80;99.90
6964;DHT22;3522;50.856;7.278;2023-05-10T11:59:44;16.00;99.90
6964;DHT22;3522;50.856;7.278;2023-05-10T12:02:11;16.00;99.90
6964;DHT22;3522;50.856;7.278;2023-05-10T12:04:38;15.90;99.90
6964;DHT22;3522;50.856;7.278;2023-05-10T12:07:05;15.90;99.90
6964;DHT22;3522;50.856;7.278;2023-05-10T12:09:32;15.90;99.90
6964;DHT22;3522;50.856;7.278;2023-05-10T12:12:00;16.10;99.90
6964;DHT22;3522;50.856;7.278;2023-05-10T12:14:28;16.30;99.90
6964;DHT22;3522;50.856;7.278;2023-05-10T12:16:58;16.70;99.90
6964;DHT22;3522;50.856;7.278;2023-05-10T12:19:25;17.00;99.90
6964;DHT22;3522;50.856;7.278;2023-05-10T12:21:51;17.00;99.90
6964;DHT22;3522;50.856;7.278;2023-05-10T12:24:18;16.80;99.90
6964;DHT22;3522;50.856;7.278;2023-05-10T12:26:46;16.60;99.90
6964;DHT22;3522;50.856;7.278;2023-05-10T12:29:15;16.40;99.90
6964;DHT22;3522;50.856;7.278;2023-05-10T12:31:49;16.30;99.90
6964;DHT22;3522;50.856;7.278;2023-05-10T12:34:22;16.50;99.90
6964;DHT22;3522;50.856;7.278;2023-05-10T12:36:49;16.70;99.90
6964;DHT22;3522;50.856;7.278;2023-05-10T12:39:16;16.80;99.90
6964;DHT22;3522;50.856;7.278;2023-05-10T12:41:43;16.80;99.90
6964;DHT22;3522;50.856;7.278;2023-05-10T12:44:09;16.80;99.90
6964;DHT22;3522;50.856;7.278;2023-05-10T12:46:37;16.60;99.90
6964;DHT22;3522;50.856;7.278;2023-05-10T12:49:04;16.60;99.90
6964;DHT22;3522;50.856;7.278;2023-05-10T12:51:31;16.70;99.90
6964;DHT22;3522;50.856;7.278;2023-05-10T12:53:57;17.00;99.90
6964;DHT22;3522;50.856;7.278;2023-05-10T12:56:24;17.20;99.90
6964;DHT22;3522;50.856;7.278;2023-05-10T12:58:51;17.30;99.90
6964;DHT22;3522;50.856;7.278;2023-05-10T13:01:17;17.50;99.90
6964;DHT22;3522;50.856;7.278;2023-05-10T13:03:45;17.60;99.90
6964;DHT22;3522;50.856;7.278;2023-05-10T13:06:12;18.00;99.90
6964;DHT22;3522;50.856;7.278;2023-05-10T13:08:39;18.30;99.90
6964;DHT22;3522;50.856;7.278;2023-05-10T13:11:06;18.50;99.90
6964;DHT22;3522;50.856;7.278;2023-05-10T13:13:32;18.70;99.90
6964;DHT22;3522;50.856;7.278;2023-05-10T13:15:59;18.70;99.90
6964;DHT22;3522;50.856;7.278;2023-05-10T13:18:25;18.50;99.90
6964;DHT22;3522;50.856;7.278;2023-05-10T13:20:54;18.20;99.90
6964;DHT22;3522;50.856;7.278;2023-05-10T13:23:21;18.00;99.90
6964;DHT22;3522;50.856;7.278;2023-05-10T13:25:47;17.80;99.90
6964;DHT22;3522;50.856;7.278;2023-05-10T13:28:14;17.70;99.90
6964;DHT22;3522;50.856;7.278;2023-05-10T13:30:40;17.70;99.90
6964;DHT22;3522;50.856;7.278;2023-05-10T13:33:07;17.70;99.90
6964;DHT22;3522;50.856;7.278;2023-05-10T13:35:33;17.60;99.90
6964;DHT22;3522;50.856;7.278;2023-05-10T13:38:01;17.50;99.90
6964;DHT22;3522;50.856;7.278;2023-05-10T13:40:28;17.40;99.90
6964;DHT22;3522;50.856;7.278;2023-05-10T13:42:54;17.30;99.90
6964;DHT22;3522;50.856;7.278;2023-05-10T13:45:21;17.40;99.90
6964;DHT22;3522;50.856;7.278;2023-05-10T13:47:48;17.40;99.90
6964;DHT22;3522;50.856;7.278;2023-05-10T13:50:14;17.30;99.90
6964;DHT22;3522;50.856;7.278;2023-05-10T13:52:41;17.30;99.90
6964;DHT22;3522;50.856;7.278;2023-05-10T13:55:09;17.20;99.90
6964;DHT22;3522;50.856;7.278;2023-05-10T13:57:37;17.20;99.90
6964;DHT22;3522;50.856;7.278;2023-05-10T14:00:04;17.30;99.90
6964;DHT22;3522;50.856;7.278;2023-05-10T14:02:31;17.30;99.90
6964;DHT22;3522;50.856;7.278;2023-05-10T14:04:58;17.20;99.90
6964;DHT22;3522;50.856;7.278;2023-05-10T14:07:24;17.10;99.90
6964;DHT22;3522;50.856;7.278;2023-05-10T14:09:51;17.00;99.90
6964;DHT22;3522;50.856;7.278;2023-05-10T14:12:19;16.80;99.90
6964;DHT22;3522;50.856;7.278;2023-05-10T14:14:45;16.60;99.90
6964;DHT22;3522;50.856;7.278;2023-05-10T14:17:12;16.40;99.90
6964;DHT22;3522;50.856;7.278;2023-05-10T14:19:38;16.20;99.90
6964;DHT22;3522;50.856;7.278;2023-05-10T14:22:05;16.10;99.90
6964;DHT22;3522;50.856;7.278;2023-05-10T14:24:31;16.00;99.90
6964;DHT22;3522;50.856;7.278;2023-05-10T14:26:58;15.80;99.90
6964;DHT22;3522;50.856;7.278;2023-05-10T14:29:26;15.70;99.90
6964;DHT22;3522;50.856;7.278;2023-05-10T14:31:53;15.60;99.90
6964;DHT22;3522;50.856;7.278;2023-05-10T14:34:20;15.60;99.90
6964;DHT22;3522;50.856;7.278;2023-05-10T14:36:46;15.60;99.90
6964;DHT22;3522;50.856;7.278;2023-05-10T14:39:13;15.80;99.90
6964;DHT22;3522;50.856;7.278;2023-05-10T14:41:39;15.80;99.90
6964;DHT22;3522;50.856;7.278;2023-05-10T14:44:08;15.90;99.90
6964;DHT22;3522;50.856;7.278;2023-05-10T14:46:36;15.90;99.90
6964;DHT22;3522;50.856;7.278;2023-05-10T14:49:03;16.00;99.90
6964;DHT22;3522;50.856;7.278;2023-05-10T14:51:30;16.20;99.90
6964;DHT22;3522;50.856;7.278;2023-05-10T14:53:57;16.40;99.90
6964;DHT22;3522;50.856;7.278;2023-05-10T14:56:23;16.80;99.90
6964;DHT22;3522;50.856;7.278;2023-05-10T14:58:51;17.10;99.90
6964;DHT22;3522;50.856;7.278;2023-05-10T15:01:17;17.40;99.90
6964;DHT22;3522;50.856;7.278;2023-05-10T15:03:45;17.50;99.90
6964;DHT22;3522;50.856;7.278;2023-05-10T15:06:13;17.60;99.90
6964;DHT22;3522;50.856;7.278;2023-05-10T15:08:40;17.60;99.90
6964;DHT22;3522;50.856;7.278;2023-05-10T15:11:06;17.60;99.90
6964;DHT22;3522;50.856;7.278;2023-05-10T15:13:33;17.40;99.90
6964;DHT22;3522;50.856;7.278;2023-05-10T15:15:59;17.30;99.90
6964;DHT22;3522;50.856;7.278;2023-05-10T15:18:26;17.20;99.90
6964;DHT22;3522;50.856;7.278;2023-05-10T15:20:54;16.90;99.90
6964;DHT22;3522;50.856;7.278;2023-05-10T15:23:21;16.80;99.90
6964;DHT22;3522;50.856;7.278;2023-05-10T15:25:47;16.70;99.90
6964;DHT22;3522;50.856;7.278;2023-05-10T15:28:14;16.60;99.90
6964;DHT22;3522;50.856;7.278;2023-05-10T15:30:41;16.60;99.90
6964;DHT22;3522;50.856;7.278;2023-05-10T15:33:08;16.60;99.90
6964;DHT22;3522;50.856;7.278;2023-05-10T15:35:34;16.60;99.90
6964;DHT22;3522;50.856;7.278;2023-05-10T15:38:04;16.50;99.90
6964;DHT22;3522;50.856;7.278;2023-05-10T15:40:31;16.20;99.90
6964;DHT22;3522;50.856;7.278;2023-05-10T15:42:57;16.00;99.90
6964;DHT22;3522;50.856;7.278;2023-05-10T15:45:24;16.10;99.90
6964;DHT22;3522;50.856;7.278;2023-05-10T15:47:51;16.10;99.90
6964;DHT22;3522;50.856;7.278;2023-05-10T15:50:18;16.20;99.90
6964;DHT22;3522;50.856;7.278;2023-05-10T15:52:44;16.20;99.90
6964;DHT22;3522;50.856;7.278;2023-05-10T15:55:13;16.20;99.90
6964;DHT22;3522;50.856;7.278;2023-05-10T15:57:40;16.20;99.90
6964;DHT22;3522;50.856;7.278;2023-05-10T16:00:08;16.10;99.90
6964;DHT22;3522;50.856;7.278;2023-05-10T16:02:35;16.10;99.90
6964;DHT22;3522;50.856;7.278;2023-05-10T16:05:01;16.10;99.90
6964;DHT22;3522;50.856;7.278;2023-05-10T16:07:28;16.20;99.90
6964;DHT22;3522;50.856;7.278;2023-05-10T16:09:54;16.30;99.90
6964;DHT22;3522;50.856;7.278;2023-05-10T16:12:22;16.40;99.90
6964;DHT22;3522;50.856;7.278;2023-05-10T16:14:49;16.40;99.90